Time;durP1;ratioP1;P1;durP2;ratioP2;P2;SDS_P1;SDS_P2;PMS_P1;PMS_P2;Temp;Humidity;BMP_temperature;BMP_pressure;BME280_temperature;BME280_humidity;BME280_pressure;Samples;Min_cycle;Max_cycle;Signal;HPM_P1;HPM_P2
2021/04/28 00:01:18;;;;;;;8.88;6.50;;;6.50;74.90;;;;;;5013806;28;20526;-64
2021/04/28 00:03:43;;;;;;;7.93;6.55;;;6.50;74.90;;;;;;5014158;28;20037;-64
2021/04/28 00:06:09;;;;;;;6.82;6.13;;;6.50;74.90;;;;;;5014217;28;20092;-64
2021/04/28 00:08:35;;;;;;;8.40;6.82;;;6.50;74.80;;;;;;5013693;28;20076;-64
2021/04/28 00:11:00;;;;;;;6.82;6.13;;;6.50;74.80;;;;;;5032768;28;20026;-64
2021/04/28 00:13:26;;;;;;;8.45;6.95;;;6.50;74.60;;;;;;5033378;28;20096;-64
2021/04/28 00:15:52;;;;;;;8.30;6.40;;;6.50;74.60;;;;;;5031669;28;20064;-64
2021/04/28 00:18:19;;;;;;;9.50;7.03;;;6.50;74.50;;;;;;5033331;28;20492;-63
2021/04/28 00:20:46;;;;;;;7.93;6.70;;;6.50;74.10;;;;;;5033473;28;20025;-63
2021/04/28 00:23:12;;;;;;;7.03;6.00;;;6.50;74.20;;;;;;5033294;28;20013;-64
2021/04/28 00:25:39;;;;;;;7.18;6.13;;;6.50;74.20;;;;;;5033428;28;20030;-64
2021/04/28 00:28:06;;;;;;;8.75;6.93;;;6.50;74.20;;;;;;5018429;28;20018;-63
2021/04/28 00:30:33;;;;;;;9.98;6.75;;;6.60;74.40;;;;;;5026493;28;20409;-63
2021/04/28 00:32:59;;;;;;;7.97;6.70;;;6.60;74.10;;;;;;5030472;28;20385;-64
2021/04/28 00:35:25;;;;;;;8.60;6.53;;;6.60;74.00;;;;;;5032995;28;20017;-64
2021/04/28 00:37:51;;;;;;;9.25;6.97;;;6.60;73.90;;;;;;5033175;28;20029;-64
2021/04/28 00:40:31;;;;;;;8.38;6.35;;;6.60;74.00;;;;;;5008539;28;20029;-64
2021/04/28 00:42:57;;;;;;;9.35;6.88;;;6.60;73.60;;;;;;5033287;28;20018;-64
2021/04/28 00:45:25;;;;;;;8.45;6.60;;;6.60;73.60;;;;;;5033110;28;20389;-64
2021/04/28 00:47:54;;;;;;;9.55;8.02;;;6.60;74.30;;;;;;5032578;28;20469;-64
2021/04/28 00:50:26;;;;;;;7.60;6.65;;;6.60;73.50;;;;;;5032825;28;20053;-64
2021/04/28 00:52:52;;;;;;;8.20;6.85;;;6.60;73.50;;;;;;5032810;28;20373;-64
2021/04/28 00:55:18;;;;;;;10.45;6.72;;;6.60;73.60;;;;;;5032575;28;20037;-64
2021/04/28 00:57:44;;;;;;;8.95;6.35;;;6.60;73.40;;;;;;5035581;28;20041;-64
2021/04/28 01:00:13;;;;;;;10.00;7.00;;;6.60;73.40;;;;;;5032858;28;20108;-64
2021/04/28 01:02:39;;;;;;;8.50;6.70;;;6.50;73.30;;;;;;5035480;28;20103;-64
2021/04/28 01:05:06;;;;;;;8.07;6.53;;;6.50;73.20;;;;;;5036914;28;20068;-64
2021/04/28 01:07:32;;;;;;;9.30;6.85;;;6.50;73.20;;;;;;5037000;28;20040;-64
2021/04/28 01:09:58;;;;;;;8.93;6.53;;;6.50;73.30;;;;;;5031390;28;20372;-64
2021/04/28 01:12:24;;;;;;;7.97;6.75;;;6.50;73.20;;;;;;5015667;28;20025;-64
2021/04/28 01:14:52;;;;;;;9.90;7.10;;;6.50;73.00;;;;;;5036625;28;20014;-64
2021/04/28 01:17:18;;;;;;;8.32;7.43;;;6.50;73.00;;;;;;5036943;28;20057;-64
2021/04/28 01:19:44;;;;;;;8.32;6.72;;;6.50;72.90;;;;;;5034610;28;20018;-64
2021/04/28 01:22:10;;;;;;;8.35;7.05;;;6.50;72.90;;;;;;5023778;28;20044;-64
2021/04/28 01:24:36;;;;;;;9.32;7.57;;;6.50;72.90;;;;;;5017843;28;20029;-64
2021/04/28 01:27:11;;;;;;;7.70;6.60;;;6.50;72.90;;;;;;5036504;28;20032;-64
2021/04/28 01:29:38;;;;;;;10.73;8.00;;;6.50;72.80;;;;;;5026892;28;20028;-64
2021/04/28 01:32:04;;;;;;;9.98;7.40;;;6.50;72.60;;;;;;5018656;28;20029;-65
2021/04/28 01:34:32;;;;;;;10.65;7.28;;;6.50;72.60;;;;;;5033491;28;20125;-64
2021/04/28 01:36:58;;;;;;;9.48;7.68;;;6.50;72.40;;;;;;5029954;28;20081;-64
2021/04/28 01:39:24;;;;;;;9.45;7.28;;;6.50;72.60;;;;;;5026456;28;20034;-64
2021/04/28 01:41:51;;;;;;;9.90;7.32;;;6.50;72.50;;;;;;5022457;28;20375;-64
2021/04/28 01:44:20;;;;;;;10.00;7.10;;;6.50;72.30;;;;;;5032645;28;20420;-64
2021/04/28 01:46:47;;;;;;;9.95;7.90;;;6.50;72.20;;;;;;5018265;28;20033;-64
2021/04/28 01:49:13;;;;;;;10.45;7.80;;;6.40;72.20;;;;;;5016631;28;20036;-64
2021/04/28 01:51:41;;;;;;;10.68;7.88;;;6.40;72.20;;;;;;5027361;28;20497;-65
2021/04/28 01:54:15;;;;;;;9.65;7.10;;;6.40;72.20;;;;;;5035549;28;20373;-64
2021/04/28 01:56:43;;;;;;;10.68;7.80;;;6.40;72.20;;;;;;5028115;28;20036;-64
2021/04/28 01:59:09;;;;;;;10.50;7.38;;;6.40;72.20;;;;;;5036130;28;20013;-64
2021/04/28 02:01:35;;;;;;;9.30;7.00;;;6.40;72.30;;;;;;5035666;28;20509;-64
2021/04/28 02:04:01;;;;;;;9.13;7.05;;;6.40;72.20;;;;;;5017188;28;20152;-64
2021/04/28 02:06:27;;;;;;;9.77;7.60;;;6.40;72.30;;;;;;5016052;28;20088;-64
2021/04/28 02:08:52;;;;;;;9.07;7.07;;;6.40;72.20;;;;;;5020111;28;20025;-64
2021/04/28 02:11:18;;;;;;;9.48;7.70;;;6.40;72.20;;;;;;5024596;28;20034;-64
2021/04/28 02:13:48;;;;;;;10.25;8.02;;;6.40;72.10;;;;;;5015305;28;20038;-65
2021/04/28 02:16:14;;;;;;;11.10;8.02;;;6.30;72.00;;;;;;5016303;28;20040;-64
2021/04/28 02:18:41;;;;;;;10.45;7.95;;;6.40;72.00;;;;;;5016261;28;20018;-64
2021/04/28 02:21:07;;;;;;;11.18;7.78;;;6.40;72.00;;;;;;5025970;28;20025;-64
2021/04/28 02:23:39;;;;;;;10.95;7.63;;;6.30;71.90;;;;;;5035292;28;20022;-65
2021/04/28 02:26:05;;;;;;;11.82;8.80;;;6.40;72.00;;;;;;5036103;28;20021;-65
2021/04/28 02:28:32;;;;;;;12.02;9.02;;;6.30;72.00;;;;;;5022268;28;20450;-64
2021/04/28 02:30:59;;;;;;;12.32;9.55;;;6.30;71.70;;;;;;5030601;28;20026;-64
2021/04/28 02:33:25;;;;;;;12.85;9.75;;;6.40;71.70;;;;;;5035454;28;20113;-64
2021/04/28 02:35:50;;;;;;;15.98;11.55;;;6.40;71.60;;;;;;5035207;28;20022;-64
2021/04/28 02:38:23;;;;;;;13.25;10.00;;;6.40;71.50;;;;;;5031225;28;20072;-64
2021/04/28 02:40:50;;;;;;;11.98;9.65;;;6.30;71.50;;;;;;5021844;28;20358;-64
2021/04/28 02:43:20;;;;;;;13.70;10.52;;;6.30;71.60;;;;;;5035050;28;20029;-64
2021/04/28 02:45:47;;;;;;;17.02;10.32;;;6.40;71.60;;;;;;5035199;28;20548;-64
2021/04/28 02:48:20;;;;;;;15.13;9.32;;;6.40;71.70;;;;;;5035020;28;20029;-64
2021/04/28 02:50:46;;;;;;;13.18;9.13;;;6.40;71.70;;;;;;5035422;28;20385;-64
2021/04/28 02:53:14;;;;;;;10.38;8.38;;;6.40;71.60;;;;;;5035323;28;20798;-64
2021/04/28 02:55:41;;;;;;;9.73;8.00;;;6.40;71.70;;;;;;5033261;28;20029;-64
2021/04/28 02:58:07;;;;;;;11.77;8.27;;;6.40;71.60;;;;;;5035635;28;20021;-64
2021/04/28 03:00:33;;;;;;;10.82;8.07;;;6.50;71.70;;;;;;5034891;28;20022;-64
2021/04/28 03:02:59;;;;;;;10.82;7.50;;;6.50;71.70;;;;;;5016805;28;20025;-64
2021/04/28 03:05:25;;;;;;;11.38;8.30;;;6.60;71.70;;;;;;5034440;28;20108;-64
2021/04/28 03:07:53;;;;;;;9.18;7.40;;;6.70;71.80;;;;;;5034020;28;20034;-64
2021/04/28 03:10:19;;;;;;;9.07;6.95;;;6.80;71.80;;;;;;5031468;28;20033;-64
2021/04/28 03:12:46;;;;;;;9.50;7.10;;;6.90;71.60;;;;;;5034411;28;20052;-64
2021/04/28 03:15:19;;;;;;;9.07;7.30;;;7.00;71.40;;;;;;5034161;28;20029;-65
2021/04/28 03:17:45;;;;;;;6.82;6.10;;;7.20;71.30;;;;;;5034225;28;20024;-64
2021/04/28 03:20:13;;;;;;;7.95;6.28;;;7.30;70.90;;;;;;5034148;28;20021;-64
2021/04/28 03:22:40;;;;;;;8.43;6.50;;;7.50;70.90;;;;;;5034167;28;20045;-64
2021/04/28 03:25:07;;;;;;;7.80;6.65;;;7.60;70.60;;;;;;5033197;28;20018;-64
2021/04/28 03:27:33;;;;;;;7.20;6.18;;;7.70;70.30;;;;;;5034184;28;20033;-64
2021/04/28 03:29:59;;;;;;;8.02;6.95;;;7.90;70.20;;;;;;5029016;28;20032;-64
2021/04/28 03:32:25;;;;;;;9.40;6.68;;;8.00;69.90;;;;;;5034178;28;20017;-64
2021/04/28 03:34:51;;;;;;;9.63;6.95;;;8.10;69.80;;;;;;5033784;28;20366;-64
2021/04/28 03:37:17;;;;;;;7.50;6.68;;;8.30;69.60;;;;;;5034360;28;20025;-64
2021/04/28 03:39:43;;;;;;;9.48;7.13;;;8.40;69.60;;;;;;5030859;28;20079;-64
2021/04/28 03:42:08;;;;;;;9.82;7.53;;;8.60;69.90;;;;;;5028766;28;20029;-65
2021/04/28 03:44:34;;;;;;;10.35;7.93;;;8.70;69.60;;;;;;5033456;28;20493;-65
2021/04/28 03:47:00;;;;;;;11.60;8.30;;;8.90;69.70;;;;;;5033645;28;20029;-65
2021/04/28 03:49:25;;;;;;;9.38;7.50;;;9.00;69.20;;;;;;5033627;28;20036;-65
2021/04/28 03:51:51;;;;;;;10.43;7.38;;;9.20;69.40;;;;;;5033605;28;20064;-65
2021/04/28 03:54:18;;;;;;;10.55;7.80;;;9.30;69.30;;;;;;5033567;28;20029;-65
2021/04/28 03:56:45;;;;;;;8.63;7.60;;;9.50;69.80;;;;;;5033863;28;20509;-64
2021/04/28 03:59:11;;;;;;;10.43;7.47;;;9.80;70.30;;;;;;5034049;28;20029;-64
2021/04/28 04:01:38;;;;;;;10.55;7.80;;;10.10;70.30;;;;;;5031246;28;20033;-64
2021/04/28 04:04:03;;;;;;;9.63;7.80;;;10.60;70.10;;;;;;5025116;28;20068;-64
2021/04/28 04:06:29;;;;;;;12.48;7.72;;;11.00;69.00;;;;;;5029904;28;20037;-64
2021/04/28 04:08:55;;;;;;;12.30;9.68;;;11.60;68.10;;;;;;5033415;28;20075;-65
2021/04/28 04:11:20;;;;;;;12.80;9.55;;;12.20;66.70;;;;;;5015605;28;20030;-65
2021/04/28 04:13:46;;;;;;;14.20;10.75;;;12.80;64.70;;;;;;5033205;28;20079;-65
2021/04/28 04:16:12;;;;;;;11.35;9.63;;;13.50;63.10;;;;;;5033262;28;20381;-65
2021/04/28 04:18:37;;;;;;;11.88;8.40;;;14.10;61.60;;;;;;5033109;28;20017;-65
2021/04/28 04:21:04;;;;;;;10.60;8.45;;;14.70;59.00;;;;;;5033174;28;20061;-65
2021/04/28 04:23:29;;;;;;;10.98;8.50;;;15.10;57.40;;;;;;5033229;28;20100;-65
2021/04/28 04:25:55;;;;;;;9.10;7.85;;;15.40;56.40;;;;;;5033377;28;20120;-65
2021/04/28 04:28:21;;;;;;;10.68;8.93;;;15.70;55.20;;;;;;5031049;28;20022;-65
2021/04/28 04:30:49;;;;;;;9.35;8.35;;;15.80;54.60;;;;;;5030606;28;20075;-65
2021/04/28 04:33:17;;;;;;;10.80;8.85;;;16.00;53.50;;;;;;5015458;28;20033;-65
2021/04/28 04:35:44;;;;;;;10.02;8.35;;;16.10;53.50;;;;;;5011154;28;20042;-65
2021/04/28 04:38:10;;;;;;;10.10;8.02;;;16.40;53.70;;;;;;5032313;28;20017;-65
2021/04/28 04:40:36;;;;;;;9.73;7.72;;;16.90;53.10;;;;;;5032544;28;20017;-65
2021/04/28 04:43:02;;;;;;;10.52;8.93;;;17.50;52.00;;;;;;5032351;28;20029;-65
2021/04/28 04:45:27;;;;;;;8.57;7.30;;;18.20;51.20;;;;;;5032306;28;20034;-65
2021/04/28 04:47:53;;;;;;;9.65;8.63;;;18.80;50.30;;;;;;5032429;28;20030;-65
2021/04/28 04:50:19;;;;;;;9.00;7.85;;;19.50;49.70;;;;;;5032786;28;20060;-65
2021/04/28 04:52:44;;;;;;;9.85;7.72;;;20.30;48.90;;;;;;5032672;28;20032;-65
2021/04/28 04:55:11;;;;;;;8.80;7.45;;;21.00;47.60;;;;;;5032635;28;20018;-65
2021/04/28 04:57:37;;;;;;;11.02;9.25;;;21.60;46.30;;;;;;5032318;28;20084;-65
2021/04/28 05:00:04;;;;;;;10.95;9.75;;;22.10;45.30;;;;;;5032077;28;20052;-65
2021/04/28 05:02:30;;;;;;;10.90;8.63;;;22.40;44.40;;;;;;5028266;28;20061;-65
2021/04/28 05:04:56;;;;;;;12.43;9.38;;;22.60;44.00;;;;;;5009368;28;20049;-56
2021/04/28 05:07:21;;;;;;;11.40;9.05;;;22.80;43.50;;;;;;5028437;28;20108;-59
2021/04/28 05:09:47;;;;;;;12.18;9.32;;;22.90;42.80;;;;;;5033743;28;20033;-57
2021/04/28 05:12:13;;;;;;;11.65;9.15;;;22.80;42.30;;;;;;5033196;28;20029;-58
2021/04/28 05:14:38;;;;;;;10.80;9.30;;;22.70;42.50;;;;;;5033278;28;20030;-58
2021/04/28 05:17:04;;;;;;;10.85;9.65;;;22.70;42.20;;;;;;5033208;28;20017;-57
2021/04/28 05:19:30;;;;;;;11.55;8.70;;;22.50;42.30;;;;;;5033053;28;20099;-59
2021/04/28 05:21:55;;;;;;;11.63;9.45;;;22.50;42.50;;;;;;5033453;28;20656;-57
2021/04/28 05:24:21;;;;;;;11.98;10.52;;;22.50;42.20;;;;;;5033165;28;20025;-58
2021/04/28 05:26:46;;;;;;;12.23;10.30;;;22.50;41.70;;;;;;5033024;28;20057;-58
2021/04/28 05:29:12;;;;;;;12.43;10.30;;;22.60;40.80;;;;;;5024651;28;20025;-58
2021/04/28 05:31:38;;;;;;;13.77;11.40;;;22.40;40.40;;;;;;5023735;28;20040;-59
2021/04/28 05:34:03;;;;;;;13.32;11.25;;;21.80;40.20;;;;;;5025513;28;20370;-59
2021/04/28 05:36:29;;;;;;;15.23;12.60;;;21.00;40.90;;;;;;5020021;28;20026;-59
2021/04/28 05:38:58;;;;;;;18.30;13.48;;;20.10;41.90;;;;;;5024372;28;20100;-63
2021/04/28 05:41:24;;;;;;;14.88;13.05;;;19.30;43.00;;;;;;5020454;28;20112;-62
2021/04/28 05:43:50;;;;;;;16.15;12.60;;;18.60;44.30;;;;;;5022755;28;20109;-62
2021/04/28 05:46:16;;;;;;;15.55;12.20;;;18.00;45.30;;;;;;5019948;28;20517;-62
2021/04/28 05:48:41;;;;;;;12.80;11.35;;;17.30;46.40;;;;;;5022880;28;20032;-62
2021/04/28 05:51:07;;;;;;;14.23;10.15;;;16.80;47.20;;;;;;5021628;28;20041;-62
2021/04/28 05:53:33;;;;;;;14.45;11.40;;;16.20;48.10;;;;;;5026543;28;20021;-63
2021/04/28 05:56:06;;;;;;;12.73;10.32;;;15.80;48.80;;;;;;5028673;28;20363;-63
2021/04/28 05:58:32;;;;;;;14.30;10.55;;;15.30;49.30;;;;;;5029036;28;20095;-62
2021/04/28 06:00:58;;;;;;;11.63;9.45;;;15.00;50.00;;;;;;5021844;28;20373;-63
2021/04/28 06:03:24;;;;;;;11.50;9.68;;;14.80;50.60;;;;;;5022296;28;20029;-63
2021/04/28 06:05:49;;;;;;;13.85;10.65;;;14.50;50.80;;;;;;5009023;28;20030;-62
2021/04/28 06:08:16;;;;;;;11.88;10.05;;;14.30;51.10;;;;;;5026807;28;20043;-62
2021/04/28 06:10:42;;;;;;;11.13;9.55;;;14.20;51.80;;;;;;5029721;28;20034;-62
2021/04/28 06:13:09;;;;;;;13.27;10.32;;;14.10;51.80;;;;;;5031356;28;20083;-62
2021/04/28 06:15:34;;;;;;;12.73;10.15;;;14.00;51.80;;;;;;5025824;28;20021;-62
2021/04/28 06:18:00;;;;;;;13.80;11.07;;;13.90;51.90;;;;;;5023469;28;20562;-62
2021/04/28 06:20:25;;;;;;;15.25;11.27;;;13.90;52.00;;;;;;5024755;28;20035;-63
2021/04/28 06:22:51;;;;;;;12.88;10.57;;;13.80;52.00;;;;;;5024582;28;20046;-62
2021/04/28 06:25:17;;;;;;;14.10;10.43;;;13.70;52.00;;;;;;5023010;28;20113;-62
2021/04/28 06:27:43;;;;;;;14.02;10.98;;;13.70;52.20;;;;;;5024080;28;20031;-63
2021/04/28 06:30:10;;;;;;;13.95;10.48;;;13.70;52.10;;;;;;5027000;28;20112;-63
2021/04/28 06:32:35;;;;;;;12.73;10.80;;;13.60;53.00;;;;;;5019807;28;20163;-63
2021/04/28 06:35:02;;;;;;;12.82;10.48;;;13.50;52.40;;;;;;5022965;28;20108;-63
2021/04/28 06:37:28;;;;;;;13.90;10.93;;;13.40;52.80;;;;;;5019170;28;20026;-62
2021/04/28 06:39:54;;;;;;;12.50;11.18;;;13.40;52.80;;;;;;5029105;28;20044;-63
2021/04/28 06:42:20;;;;;;;12.32;10.75;;;13.30;53.20;;;;;;5018434;28;20038;-62
2021/04/28 06:44:47;;;;;;;9.85;8.73;;;13.30;53.40;;;;;;5018499;28;20032;-62
2021/04/28 06:47:14;;;;;;;11.15;8.73;;;13.20;53.00;;;;;;5022655;28;20052;-62
2021/04/28 06:49:39;;;;;;;12.00;8.73;;;13.20;52.80;;;;;;5014722;28;20179;-62
2021/04/28 06:52:05;;;;;;;13.32;9.65;;;13.20;53.10;;;;;;5021270;28;20033;-62
2021/04/28 06:54:31;;;;;;;12.50;10.15;;;13.20;53.10;;;;;;5016545;28;20036;-62
2021/04/28 06:56:57;;;;;;;11.55;9.55;;;13.20;53.20;;;;;;5010836;28;20045;-62
2021/04/28 06:59:22;;;;;;;12.05;10.48;;;13.20;53.20;;;;;;5018193;28;20036;-63
2021/04/28 07:01:52;;;;;;;13.75;10.75;;;13.20;53.70;;;;;;5017876;28;20504;-65
2021/04/28 07:04:21;;;;;;;12.45;10.40;;;13.20;53.90;;;;;;5020596;28;20789;-62
2021/04/28 07:06:48;;;;;;;13.38;10.23;;;13.20;53.60;;;;;;5013183;28;20025;-64
2021/04/28 07:09:13;;;;;;;14.93;10.43;;;13.20;53.70;;;;;;5016790;28;20041;-65
2021/04/28 07:11:40;;;;;;;12.20;10.77;;;13.10;53.70;;;;;;5013373;28;20041;-63
2021/04/28 07:14:05;;;;;;;15.38;10.80;;;13.10;53.70;;;;;;5015037;28;20100;-65
2021/04/28 07:16:31;;;;;;;12.98;11.02;;;13.20;53.80;;;;;;5018556;28;20520;-63
2021/04/28 07:18:57;;;;;;;14.40;11.13;;;13.10;53.60;;;;;;5018422;28;20112;-63
2021/04/28 07:21:23;;;;;;;14.00;11.48;;;13.10;53.80;;;;;;5010787;28;21861;-62
2021/04/28 07:23:48;;;;;;;15.65;12.10;;;13.10;53.70;;;;;;5015515;28;20048;-62
2021/04/28 07:26:14;;;;;;;17.25;13.18;;;13.00;53.90;;;;;;5016173;28;21470;-62
2021/04/28 07:28:40;;;;;;;16.27;12.82;;;13.00;53.90;;;;;;5018424;28;20033;-63
2021/04/28 07:31:08;;;;;;;13.55;10.93;;;13.00;54.10;;;;;;5013495;28;20347;-62
2021/04/28 07:33:34;;;;;;;14.52;11.13;;;13.00;54.30;;;;;;5015536;28;20022;-63
2021/04/28 07:36:00;;;;;;;16.80;11.93;;;13.00;54.60;;;;;;5020629;28;20061;-63
2021/04/28 07:38:26;;;;;;;16.70;14.52;;;13.00;54.10;;;;;;5018956;28;20101;-63
2021/04/28 07:40:51;;;;;;;16.88;13.95;;;13.00;54.20;;;;;;5004105;28;20033;-63
2021/04/28 07:43:17;;;;;;;19.00;14.60;;;12.90;54.50;;;;;;5014729;28;20042;-63
2021/04/28 07:45:43;;;;;;;20.83;15.63;;;12.90;54.50;;;;;;5014260;28;20033;-62
2021/04/28 07:48:11;;;;;;;20.35;18.15;;;12.90;54.60;;;;;;5020094;28;20036;-63
2021/04/28 07:50:38;;;;;;;20.50;17.35;;;12.90;54.50;;;;;;5014724;28;20049;-63
2021/04/28 07:53:05;;;;;;;20.08;17.83;;;12.80;54.30;;;;;;5012023;28;20041;-64
2021/04/28 07:55:31;;;;;;;21.35;16.23;;;12.80;54.50;;;;;;5013985;28;20489;-64
2021/04/28 07:57:58;;;;;;;19.17;16.42;;;12.80;54.70;;;;;;5001597;28;20050;-64
2021/04/28 08:00:27;;;;;;;17.88;15.30;;;12.80;54.60;;;;;;5017678;28;20056;-64
2021/04/28 08:02:53;;;;;;;17.65;14.73;;;12.80;54.90;;;;;;5013419;28;20017;-63
2021/04/28 08:05:19;;;;;;;17.98;14.38;;;12.80;54.50;;;;;;5013505;28;20060;-64
2021/04/28 08:07:44;;;;;;;17.20;14.05;;;12.80;54.40;;;;;;5017476;28;20029;-64
2021/04/28 08:10:10;;;;;;;15.80;13.50;;;12.80;54.70;;;;;;5015957;28;20469;-64
2021/04/28 08:12:36;;;;;;;15.48;13.70;;;12.70;54.40;;;;;;5013044;28;20033;-64
2021/04/28 08:15:03;;;;;;;17.35;13.48;;;12.70;54.70;;;;;;5009405;28;20744;-64
2021/04/28 08:17:29;;;;;;;15.55;13.95;;;12.70;54.80;;;;;;5014323;28;20029;-63
2021/04/28 08:19:56;;;;;;;16.88;14.85;;;12.70;54.60;;;;;;5011279;28;20108;-63
2021/04/28 08:22:22;;;;;;;15.77;14.15;;;12.70;54.70;;;;;;5011111;28;20033;-64
2021/04/28 08:24:48;;;;;;;16.48;13.70;;;12.70;54.80;;;;;;5015936;28;20063;-63
2021/04/28 08:27:13;;;;;;;15.07;12.48;;;12.70;54.60;;;;;;5012089;28;20041;-63
2021/04/28 08:29:39;;;;;;;15.02;12.73;;;12.70;54.70;;;;;;5017834;28;20029;-63
2021/04/28 08:32:05;;;;;;;16.48;13.68;;;12.60;54.60;;;;;;5014425;28;20034;-64
2021/04/28 08:34:30;;;;;;;15.25;13.48;;;12.60;54.30;;;;;;5015098;28;20076;-64
2021/04/28 08:36:56;;;;;;;14.63;12.05;;;12.60;54.20;;;;;;5017150;28;20034;-64
2021/04/28 08:39:22;;;;;;;13.88;11.20;;;12.60;54.30;;;;;;5001266;28;20072;-64
2021/04/28 08:41:49;;;;;;;14.02;10.73;;;12.50;53.70;;;;;;5009999;28;20068;-63
2021/04/28 08:44:16;;;;;;;13.55;10.65;;;12.50;53.60;;;;;;5012330;28;20033;-64
2021/04/28 08:46:42;;;;;;;11.85;9.60;;;12.50;53.50;;;;;;5012076;28;20365;-63
2021/04/28 08:49:08;;;;;;;10.70;8.35;;;12.50;53.10;;;;;;5014966;28;20048;-64
2021/04/28 08:51:37;;;;;;;9.15;7.90;;;12.50;52.90;;;;;;5010958;28;20597;-63
2021/04/28 08:54:03;;;;;;;9.32;7.00;;;12.50;52.60;;;;;;5013445;28;20116;-64
2021/04/28 08:56:29;;;;;;;8.45;6.10;;;12.50;52.00;;;;;;5012004;28;20033;-63
2021/04/28 08:58:56;;;;;;;7.22;6.25;;;12.50;51.80;;;;;;5002684;28;20040;-63
2021/04/28 09:01:30;;;;;;;9.90;6.93;;;12.50;51.50;;;;;;5016611;28;20037;-63
2021/04/28 09:03:58;;;;;;;9.00;6.45;;;12.40;51.50;;;;;;5014464;28;20107;-63
2021/04/28 09:06:25;;;;;;;7.93;6.30;;;12.40;51.20;;;;;;5018110;28;20099;-64
2021/04/28 09:08:55;;;;;;;7.50;6.32;;;12.40;51.10;;;;;;5019588;28;20112;-64
2021/04/28 09:11:36;;;;;;;7.28;6.00;;;12.40;51.10;;;;;;5014044;28;20040;-64
2021/04/28 09:14:11;;;;;;;6.80;4.88;;;12.40;51.00;;;;;;5017116;28;20018;-63
2021/04/28 09:16:38;;;;;;;7.78;5.53;;;12.40;50.80;;;;;;5020347;28;20579;-63
2021/04/28 09:19:04;;;;;;;7.05;5.70;;;12.40;50.70;;;;;;5013176;28;20036;-64
2021/04/28 09:21:59;;;;;;;7.95;5.68;;;12.30;50.70;;;;;;5015982;28;20056;-64
2021/04/28 09:24:28;;;;;;;5.75;5.15;;;12.40;50.70;;;;;;5022632;28;20040;-63
2021/04/28 09:26:57;;;;;;;5.78;4.82;;;12.30;50.50;;;;;;5028458;28;20653;-64
2021/04/28 09:29:27;;;;;;;6.93;5.13;;;12.30;50.30;;;;;;5025087;28;20040;-63
2021/04/28 09:32:04;;;;;;;5.47;4.53;;;12.30;50.00;;;;;;5027671;28;20079;-63
2021/04/28 09:34:41;;;;;;;6.72;4.85;;;12.30;49.90;;;;;;5024088;28;20022;-63
2021/04/28 09:37:15;;;;;;;6.05;4.07;;;12.30;49.80;;;;;;5020553;28;20025;-63
2021/04/28 09:39:50;;;;;;;3.45;2.95;;;12.30;49.20;;;;;;5018877;28;20039;-63
2021/04/28 09:42:18;;;;;;;3.63;2.80;;;12.20;48.30;;;;;;5022001;28;20052;-63
2021/04/28 09:44:48;;;;;;;3.50;2.83;;;12.20;48.00;;;;;;5021712;28;20460;-63
2021/04/28 09:47:22;;;;;;;3.35;2.75;;;12.20;47.50;;;;;;5020372;28;20029;-63
2021/04/28 09:49:48;;;;;;;2.47;2.22;;;12.20;47.40;;;;;;5024887;28;20030;-63
2021/04/28 09:52:20;;;;;;;3.00;2.40;;;12.20;46.90;;;;;;5024335;28;20382;-63
2021/04/28 09:54:48;;;;;;;2.45;2.13;;;12.20;46.90;;;;;;5025010;28;20028;-63
2021/04/28 09:57:15;;;;;;;2.35;2.15;;;12.20;47.10;;;;;;5022632;28;20018;-63
2021/04/28 09:59:41;;;;;;;2.25;2.08;;;12.20;46.50;;;;;;5019569;28;20037;-63
2021/04/28 10:02:07;;;;;;;2.17;2.00;;;12.10;46.30;;;;;;5022513;28;20531;-63
2021/04/28 10:04:33;;;;;;;2.30;2.10;;;12.10;46.20;;;;;;5023797;28;20033;-63
2021/04/28 10:06:59;;;;;;;2.53;2.15;;;12.10;45.70;;;;;;5022455;28;20363;-63
2021/04/28 10:09:36;;;;;;;3.13;2.20;;;12.10;45.50;;;;;;5022053;28;20029;-63
2021/04/28 10:12:13;;;;;;;2.03;1.83;;;12.10;45.30;;;;;;5023391;28;20052;-63
2021/04/28 10:14:39;;;;;;;2.97;2.22;;;12.00;45.30;;;;;;5026815;28;20030;-64
2021/04/28 10:17:06;;;;;;;1.80;1.70;;;12.00;45.00;;;;;;5025690;28;20041;-63
2021/04/28 10:19:34;;;;;;;1.88;1.77;;;12.00;45.20;;;;;;5026490;28;20026;-63
2021/04/28 10:22:07;;;;;;;2.17;2.00;;;12.00;44.60;;;;;;5022663;28;20029;-63
2021/04/28 10:24:34;;;;;;;2.58;2.00;;;12.00;44.70;;;;;;5024609;28;20396;-63
2021/04/28 10:27:01;;;;;;;2.13;1.90;;;12.00;44.70;;;;;;5024216;28;20102;-63
2021/04/28 10:29:28;;;;;;;3.13;2.35;;;12.00;44.20;;;;;;5016845;28;20037;-63
2021/04/28 10:31:54;;;;;;;2.60;2.22;;;11.90;44.40;;;;;;5024477;28;20033;-63
2021/04/28 10:34:37;;;;;;;2.65;2.25;;;11.90;44.20;;;;;;5022105;28;20033;-63
2021/04/28 10:37:04;;;;;;;2.30;2.05;;;11.90;44.00;;;;;;5025046;28;20088;-63
2021/04/28 10:39:31;;;;;;;2.97;2.30;;;11.90;44.00;;;;;;5016893;28;20072;-63
2021/04/28 10:41:57;;;;;;;2.97;2.53;;;11.80;44.60;;;;;;5019210;28;20560;-63
2021/04/28 10:44:44;;;;;;;2.47;2.28;;;11.80;43.90;;;;;;5020415;28;20034;-63
2021/04/28 10:47:45;;;;;;;2.88;2.30;;;11.80;43.60;;;;;;5019082;28;20862;-62
2021/04/28 10:50:18;;;;;;;3.42;2.08;;;11.80;43.60;;;;;;5001777;28;20568;-63
2021/04/28 10:53:02;;;;;;;2.40;2.20;;;11.80;43.90;;;;;;4996425;28;20037;-63
2021/04/28 10:55:47;;;;;;;1.92;1.83;;;11.80;43.90;;;;;;5011252;28;20034;-63
2021/04/28 10:58:29;;;;;;;2.30;2.00;;;11.80;43.90;;;;;;5016057;28;20651;-63
2021/04/28 11:01:07;;;;;;;1.77;1.67;;;11.80;43.70;;;;;;5023277;28;20032;-63
2021/04/28 11:03:35;;;;;;;2.65;2.45;;;11.70;43.50;;;;;;5017672;28;20048;-63
2021/04/28 11:06:28;;;;;;;3.47;2.72;;;11.80;43.50;;;;;;5021005;28;20075;-64
2021/04/28 11:08:59;;;;;;;2.58;2.08;;;11.70;43.20;;;;;;5019738;28;20029;-63
2021/04/28 11:11:31;;;;;;;3.17;2.30;;;11.70;43.40;;;;;;5009374;28;20041;-64
2021/04/28 11:14:09;;;;;;;2.25;1.90;;;11.80;43.90;;;;;;5017609;28;20038;-63
2021/04/28 11:16:37;;;;;;;2.05;1.95;;;11.70;43.60;;;;;;5014270;28;20451;-64
2021/04/28 11:19:23;;;;;;;3.50;2.60;;;11.70;43.50;;;;;;5016363;28;20034;-63
2021/04/28 11:22:10;;;;;;;2.40;2.17;;;11.70;43.50;;;;;;5018440;28;20022;-63
2021/04/28 11:25:10;;;;;;;2.33;2.13;;;11.70;43.40;;;;;;5021626;28;20029;-62
2021/04/28 11:27:43;;;;;;;2.30;2.10;;;11.70;43.60;;;;;;5018022;28;20030;-63
2021/04/28 11:30:28;;;;;;;2.47;2.17;;;11.70;43.90;;;;;;5017016;28;20041;-62
2021/04/28 11:33:10;;;;;;;3.13;2.50;;;11.70;44.20;;;;;;5019160;28;20033;-63
2021/04/28 11:35:41;;;;;;;3.78;2.72;;;11.70;43.90;;;;;;5012611;28;20029;-61
2021/04/28 11:38:17;;;;;;;3.97;2.95;;;11.70;44.10;;;;;;5011559;28;20033;-62
2021/04/28 11:41:01;;;;;;;3.40;2.88;;;11.70;43.90;;;;;;5010895;28;20030;-63
2021/04/28 11:43:33;;;;;;;4.70;3.00;;;11.70;43.80;;;;;;5020972;28;20033;-62
2021/04/28 11:46:09;;;;;;;4.53;3.55;;;11.70;44.10;;;;;;5012163;28;20029;-62
2021/04/28 11:48:37;;;;;;;4.55;3.28;;;11.70;44.20;;;;;;5014201;28;20041;-62
2021/04/28 11:51:26;;;;;;;5.15;3.45;;;11.70;44.20;;;;;;5008641;28;20053;-62
2021/04/28 11:53:54;;;;;;;5.28;3.58;;;11.70;44.10;;;;;;5001920;28;20030;-62
2021/04/28 11:56:38;;;;;;;4.55;3.40;;;11.70;44.50;;;;;;5008981;28;20052;-62
2021/04/28 11:59:05;;;;;;;4.47;3.20;;;11.70;44.60;;;;;;5004915;28;20029;-62
2021/04/28 12:01:33;;;;;;;3.72;2.80;;;11.70;45.10;;;;;;5010901;28;20026;-62
2021/04/28 12:04:05;;;;;;;3.42;2.90;;;11.70;45.40;;;;;;5016183;28;20084;-62
2021/04/28 12:06:40;;;;;;;4.40;3.00;;;11.70;45.80;;;;;;5017003;28;20064;-62
2021/04/28 12:09:29;;;;;;;3.60;3.10;;;11.70;45.80;;;;;;5018381;28;20025;-62
2021/04/28 12:12:11;;;;;;;4.35;3.42;;;11.70;46.00;;;;;;5012859;28;20030;-62
2021/04/28 12:14:38;;;;;;;3.40;3.10;;;11.70;46.30;;;;;;5018631;28;20053;-62
2021/04/28 12:17:05;;;;;;;4.25;3.30;;;11.70;46.80;;;;;;5015473;28;20040;-62
2021/04/28 12:19:30;;;;;;;3.85;3.05;;;11.80;46.70;;;;;;5016220;28;20504;-62
2021/04/28 12:22:07;;;;;;;4.22;3.30;;;11.80;46.50;;;;;;5017187;28;20025;-62
2021/04/28 12:24:39;;;;;;;4.55;3.47;;;11.80;46.30;;;;;;5020907;28;20041;-62
2021/04/28 12:27:06;;;;;;;3.83;3.20;;;11.70;45.90;;;;;;5014075;28;20033;-62
2021/04/28 12:29:36;;;;;;;4.13;3.10;;;11.60;46.80;;;;;;5011734;28;20203;-62
2021/04/28 12:32:02;;;;;;;4.78;3.70;;;11.50;46.10;;;;;;5012888;28;20536;-63
2021/04/28 12:34:28;;;;;;;4.45;3.63;;;11.50;46.40;;;;;;5013375;28;20090;-62
2021/04/28 12:36:54;;;;;;;5.25;3.80;;;11.40;46.40;;;;;;5007250;28;20022;-62
2021/04/28 12:39:29;;;;;;;4.88;3.40;;;11.40;46.20;;;;;;5019005;28;20076;-62
2021/04/28 12:41:56;;;;;;;4.75;3.58;;;11.40;46.40;;;;;;5016739;28;20053;-62
2021/04/28 12:44:23;;;;;;;4.35;3.60;;;11.40;46.40;;;;;;5017732;28;20061;-62
2021/04/28 12:46:50;;;;;;;4.10;3.00;;;11.40;46.70;;;;;;4999616;28;20417;-62
2021/04/28 12:49:16;;;;;;;3.42;2.78;;;11.40;47.50;;;;;;5020381;28;20490;-62